createdAt,value
2017-10-26T00:00:24.437Z,13.90
2017-10-26T00:02:52.783Z,13.90
2017-10-26T00:05:22.250Z,13.90
2017-10-26T00:07:51.430Z,13.90
2017-10-26T00:10:20.327Z,13.90
2017-10-26T00:12:48.650Z,13.90
2017-10-26T00:15:17.023Z,13.90
2017-10-26T00:17:46.070Z,13.90
2017-10-26T00:20:14.430Z,13.90
2017-10-26T00:22:42.735Z,13.80
2017-10-26T00:25:11.066Z,13.70
2017-10-26T00:27:39.380Z,13.60
2017-10-26T00:30:07.970Z,13.50
2017-10-26T00:32:36.332Z,13.50
2017-10-26T00:35:03.927Z,13.50
2017-10-26T00:37:32.252Z,13.50
2017-10-26T00:40:00.663Z,13.50
2017-10-26T00:42:28.990Z,13.50
2017-10-26T00:44:57.344Z,13.50
2017-10-26T00:47:25.675Z,13.50
2017-10-26T00:49:54.963Z,13.60
2017-10-26T00:52:23.287Z,13.60
2017-10-26T00:54:52.275Z,13.60
2017-10-26T00:57:22.332Z,13.50
2017-10-26T00:59:51.501Z,13.50
2017-10-26T01:02:19.833Z,13.40
2017-10-26T01:04:48.202Z,13.40
2017-10-26T01:07:16.516Z,13.30
2017-10-26T01:09:45.928Z,13.20
2017-10-26T01:12:14.234Z,13.10
2017-10-26T01:14:42.567Z,13.00
2017-10-26T01:17:10.867Z,13.00
2017-10-26T01:19:40.267Z,13.00
2017-10-26T01:22:08.583Z,13.00
2017-10-26T01:24:36.935Z,13.00
2017-10-26T01:27:05.247Z,13.00
2017-10-26T01:29:33.567Z,12.90
2017-10-26T01:32:01.895Z,12.90
2017-10-26T01:34:30.198Z,12.80
2017-10-26T01:36:58.537Z,12.80
2017-10-26T01:39:26.867Z,12.80
2017-10-26T01:41:55.199Z,12.80
2017-10-26T01:44:23.510Z,12.80
2017-10-26T01:46:51.859Z,12.80
2017-10-26T01:49:20.190Z,12.80
2017-10-26T01:51:48.500Z,12.80
2017-10-26T01:54:16.827Z,12.80
2017-10-26T01:56:44.372Z,12.80
2017-10-26T01:59:12.783Z,12.90
2017-10-26T02:01:41.099Z,12.90
2017-10-26T02:04:09.430Z,12.90
2017-10-26T02:06:38.882Z,12.90
2017-10-26T02:09:08.574Z,12.90
2017-10-26T02:11:36.877Z,12.90
2017-10-26T02:14:05.186Z,13.00
2017-10-26T02:16:33.512Z,12.90
2017-10-26T02:19:01.835Z,13.00
2017-10-26T02:21:30.179Z,13.00
2017-10-26T02:23:58.502Z,13.00
2017-10-26T02:26:26.835Z,13.10
2017-10-26T02:29:16.824Z,13.10
2017-10-26T02:31:45.152Z,13.00
2017-10-26T02:34:13.460Z,13.00
2017-10-26T02:36:41.791Z,13.10
2017-10-26T02:39:10.107Z,13.10
2017-10-26T02:41:38.458Z,13.10
2017-10-26T02:44:06.794Z,13.10
2017-10-26T02:46:35.108Z,13.20
2017-10-26T02:49:03.434Z,13.10
2017-10-26T02:51:31.755Z,13.10
2017-10-26T02:54:00.091Z,13.20
2017-10-26T02:56:28.406Z,13.20
2017-10-26T02:58:56.740Z,13.20
2017-10-26T03:01:25.049Z,13.20
2017-10-26T03:03:53.371Z,13.20
2017-10-26T03:06:22.615Z,13.20
2017-10-26T03:08:52.379Z,13.20
2017-10-26T03:11:21.309Z,13.20
2017-10-26T03:13:49.615Z,13.20
2017-10-26T03:16:17.188Z,13.20
2017-10-26T03:18:45.494Z,13.20
2017-10-26T03:21:13.819Z,13.20
2017-10-26T03:23:42.131Z,13.20
2017-10-26T03:26:09.701Z,13.20
2017-10-26T03:28:38.018Z,13.20
2017-10-26T03:31:06.408Z,13.20
2017-10-26T03:33:34.751Z,13.30
2017-10-26T03:36:03.090Z,13.30
2017-10-26T03:38:31.401Z,13.30
2017-10-26T03:40:59.699Z,13.30
2017-10-26T03:43:28.020Z,13.30
2017-10-26T03:45:56.335Z,13.30
2017-10-26T03:48:24.690Z,13.30
2017-10-26T03:50:52.995Z,13.30
2017-10-26T03:53:22.146Z,13.30
2017-10-26T03:55:50.451Z,13.30
2017-10-26T03:58:18.815Z,13.30
2017-10-26T04:00:46.360Z,13.30
2017-10-26T04:03:14.727Z,13.30
2017-10-26T04:05:43.036Z,13.30
2017-10-26T04:08:11.340Z,13.30
2017-10-26T04:10:39.668Z,13.30
2017-10-26T04:13:07.985Z,13.30
2017-10-26T04:15:36.348Z,13.30
2017-10-26T04:18:04.685Z,13.30
2017-10-26T04:20:33.011Z,13.30
2017-10-26T04:23:01.320Z,13.30
2017-10-26T04:25:28.894Z,13.30
2017-10-26T04:27:57.198Z,13.40
2017-10-26T04:30:25.511Z,13.40
2017-10-26T04:32:53.847Z,13.40
2017-10-26T04:35:23.459Z,13.30
2017-10-26T04:37:51.800Z,13.40
2017-10-26T04:40:20.110Z,13.40
2017-10-26T04:42:48.450Z,13.40
2017-10-26T04:45:16.775Z,13.40
2017-10-26T04:47:45.156Z,13.40
2017-10-26T04:50:13.467Z,13.40
2017-10-26T04:52:41.778Z,13.40
2017-10-26T04:55:10.099Z,13.40
2017-10-26T04:57:38.403Z,13.30
2017-10-26T05:00:07.744Z,13.30
2017-10-26T05:02:36.651Z,13.30
2017-10-26T05:05:05.003Z,13.30
2017-10-26T05:07:33.328Z,13.30
2017-10-26T05:10:01.675Z,13.40
2017-10-26T05:12:29.983Z,13.40
2017-10-26T05:14:58.286Z,13.40
2017-10-26T05:17:26.618Z,13.40
2017-10-26T05:19:54.935Z,13.40
2017-10-26T05:22:23.259Z,13.40
2017-10-26T05:24:52.488Z,13.50
2017-10-26T05:27:20.831Z,13.50
2017-10-26T05:29:49.157Z,13.50
2017-10-26T05:32:17.471Z,13.50
2017-10-26T05:34:45.803Z,13.50
2017-10-26T05:37:14.114Z,13.50
2017-10-26T05:39:42.444Z,13.50
2017-10-26T05:42:10.759Z,13.50
2017-10-26T05:44:39.116Z,13.50
2017-10-26T05:47:08.379Z,13.40
2017-10-26T05:49:37.662Z,13.50
2017-10-26T05:52:06.478Z,13.50
2017-10-26T05:54:34.827Z,13.50
2017-10-26T05:57:03.153Z,13.50
2017-10-26T05:59:32.505Z,13.50
2017-10-26T06:02:00.833Z,13.50
2017-10-26T06:04:29.146Z,13.50
2017-10-26T06:06:57.487Z,13.60
2017-10-26T06:09:25.799Z,13.60
2017-10-26T06:11:54.102Z,13.60
2017-10-26T06:14:23.554Z,13.60
2017-10-26T06:16:52.774Z,13.60
2017-10-26T06:19:21.757Z,13.60
2017-10-26T06:21:50.085Z,13.60
2017-10-26T06:24:18.483Z,13.60
2017-10-26T06:26:46.811Z,13.70
2017-10-26T06:29:15.206Z,13.70
2017-10-26T06:31:43.550Z,13.70
2017-10-26T06:34:11.978Z,13.70
2017-10-26T06:36:40.303Z,13.70
2017-10-26T06:39:08.607Z,13.70
2017-10-26T06:41:36.938Z,13.80
2017-10-26T06:44:05.264Z,13.80
2017-10-26T06:46:33.607Z,13.80
2017-10-26T06:49:01.910Z,13.90
2017-10-26T06:51:30.241Z,13.90
2017-10-26T06:53:58.559Z,13.90
2017-10-26T06:56:26.887Z,13.90
2017-10-26T06:58:55.199Z,14.00
2017-10-26T07:01:23.531Z,14.00
2017-10-26T07:03:53.094Z,14.00
2017-10-26T07:06:22.434Z,14.10
2017-10-26T07:08:50.748Z,14.20
2017-10-26T07:11:19.079Z,14.30
2017-10-26T07:13:47.415Z,14.30
2017-10-26T07:16:15.750Z,14.40
2017-10-26T07:18:44.077Z,14.40
2017-10-26T07:21:12.391Z,14.40
2017-10-26T07:23:40.735Z,14.50
2017-10-26T07:26:09.058Z,14.50
2017-10-26T07:28:38.683Z,14.50
2017-10-26T07:31:06.998Z,14.60
2017-10-26T07:33:34.563Z,14.60
2017-10-26T07:36:02.870Z,14.70
2017-10-26T07:38:31.224Z,14.80
2017-10-26T07:40:59.531Z,14.90
2017-10-26T07:43:27.860Z,15.00
2017-10-26T07:45:56.166Z,15.10
2017-10-26T07:48:24.487Z,15.10
2017-10-26T07:50:52.807Z,15.20
2017-10-26T07:53:21.890Z,15.20
2017-10-26T07:55:50.197Z,15.30
2017-10-26T07:58:18.531Z,15.30
2017-10-26T08:00:46.851Z,15.30
2017-10-26T08:03:15.214Z,15.40
2017-10-26T08:05:42.756Z,15.40
2017-10-26T08:08:11.062Z,15.40
2017-10-26T08:10:39.387Z,15.40
2017-10-26T08:13:09.151Z,15.50
2017-10-26T08:15:37.992Z,15.50
2017-10-26T08:18:07.339Z,15.60
2017-10-26T08:20:36.378Z,15.70
2017-10-26T08:23:04.682Z,15.70
2017-10-26T08:25:33.005Z,15.70
2017-10-26T08:28:01.307Z,15.80
2017-10-26T08:30:29.667Z,15.80
2017-10-26T08:32:57.970Z,15.80
2017-10-26T08:35:26.306Z,15.90
2017-10-26T08:37:54.626Z,15.90
2017-10-26T08:40:22.951Z,16.00
2017-10-26T08:42:52.443Z,16.10
2017-10-26T08:45:21.902Z,16.20
2017-10-26T08:47:50.222Z,16.30
2017-10-26T08:50:18.578Z,16.40
2017-10-26T08:52:46.883Z,16.40
2017-10-26T08:55:15.219Z,16.40
2017-10-26T08:57:43.535Z,16.40
2017-10-26T09:00:11.882Z,16.40
2017-10-26T09:02:40.184Z,16.40
2017-10-26T09:05:08.505Z,16.40
2017-10-26T09:07:36.842Z,16.40
2017-10-26T09:10:05.142Z,16.40
2017-10-26T09:12:33.475Z,16.30
2017-10-26T09:15:01.783Z,16.20
2017-10-26T09:17:30.115Z,16.20
2017-10-26T09:19:58.422Z,16.20
2017-10-26T09:22:26.786Z,16.30
2017-10-26T09:24:55.097Z,16.30
2017-10-26T09:27:23.423Z,16.40
2017-10-26T09:29:52.170Z,16.50
2017-10-26T09:32:21.307Z,16.50
2017-10-26T09:34:49.950Z,16.50
2017-10-26T09:37:19.354Z,16.40
2017-10-26T09:39:48.627Z,16.40
2017-10-26T09:42:16.957Z,16.30
2017-10-26T09:44:45.257Z,16.30
2017-10-26T09:47:13.582Z,16.40
2017-10-26T09:49:41.894Z,16.50
2017-10-26T09:52:10.220Z,16.60
2017-10-26T09:54:38.534Z,16.70
2017-10-26T09:57:06.893Z,16.80
2017-10-26T09:59:36.282Z,16.90
2017-10-26T10:02:04.633Z,17.00
2017-10-26T10:04:32.958Z,17.00
2017-10-26T10:07:01.262Z,17.00
2017-10-26T10:09:30.518Z,17.10
2017-10-26T10:11:58.823Z,17.10
2017-10-26T10:14:27.193Z,17.10
2017-10-26T10:16:55.503Z,17.10
2017-10-26T10:19:23.831Z,17.10
2017-10-26T10:21:53.098Z,17.10
2017-10-26T10:24:22.423Z,17.10
2017-10-26T10:26:50.724Z,17.10
2017-10-26T10:29:19.058Z,17.00
2017-10-26T10:31:47.359Z,17.00
2017-10-26T10:34:15.690Z,17.00
2017-10-26T10:36:43.987Z,17.10
2017-10-26T10:39:12.320Z,17.20
2017-10-26T10:41:40.627Z,17.20
2017-10-26T10:44:08.954Z,17.20
2017-10-26T10:46:37.250Z,17.30
2017-10-26T10:49:05.571Z,17.30
2017-10-26T10:51:33.875Z,17.30
2017-10-26T10:54:02.229Z,17.40
2017-10-26T10:56:30.529Z,17.40
2017-10-26T10:59:04.518Z,17.30
2017-10-26T11:01:32.853Z,17.30
2017-10-26T11:04:01.174Z,17.30
2017-10-26T11:06:29.506Z,17.20
2017-10-26T11:08:57.809Z,17.20
2017-10-26T11:11:26.143Z,17.10
2017-10-26T11:13:54.443Z,17.10
2017-10-26T11:16:22.767Z,17.20
2017-10-26T11:18:52.210Z,17.20
2017-10-26T11:21:21.246Z,17.20
2017-10-26T11:23:51.196Z,17.10
2017-10-26T11:26:22.038Z,17.20
2017-10-26T11:28:51.172Z,17.20
2017-10-26T11:31:21.154Z,17.20
2017-10-26T11:33:50.686Z,17.20
2017-10-26T11:36:19.010Z,17.40
2017-10-26T11:38:47.318Z,17.40
2017-10-26T11:41:15.639Z,17.50
2017-10-26T11:43:43.942Z,17.40
2017-10-26T11:46:12.263Z,17.30
2017-10-26T11:48:40.564Z,17.30
2017-10-26T11:51:08.903Z,17.20
2017-10-26T11:53:37.473Z,17.10
2017-10-26T11:56:05.811Z,17.00
2017-10-26T11:58:34.128Z,16.90
2017-10-26T12:01:02.437Z,16.80
2017-10-26T12:03:30.759Z,16.80
2017-10-26T12:05:59.060Z,16.70
2017-10-26T12:08:27.400Z,16.70
2017-10-26T12:10:55.707Z,16.70
2017-10-26T12:13:24.026Z,16.70
2017-10-26T12:15:53.492Z,16.60
2017-10-26T12:18:22.351Z,16.60
2017-10-26T12:20:51.765Z,16.60
2017-10-26T12:23:20.106Z,16.60
2017-10-26T12:25:48.446Z,16.60
2017-10-26T12:28:16.783Z,16.60
2017-10-26T12:30:45.095Z,16.70
2017-10-26T12:33:13.422Z,16.60
2017-10-26T12:35:41.750Z,16.70
2017-10-26T12:38:10.095Z,16.70
2017-10-26T12:40:38.412Z,16.70
2017-10-26T12:43:06.754Z,16.70
2017-10-26T12:45:35.067Z,16.70
2017-10-26T12:48:03.410Z,16.70
2017-10-26T12:50:31.712Z,16.70
2017-10-26T12:53:00.016Z,16.70
2017-10-26T12:55:28.360Z,16.70
2017-10-26T12:57:56.662Z,16.70
2017-10-26T13:00:25.030Z,16.70
2017-10-26T13:02:53.335Z,16.70
2017-10-26T13:05:21.744Z,16.70
2017-10-26T13:07:50.184Z,16.70
2017-10-26T13:10:18.526Z,16.70
2017-10-26T13:12:46.855Z,16.70
2017-10-26T13:15:15.198Z,16.70
2017-10-26T13:17:43.557Z,16.70
2017-10-26T13:20:11.877Z,16.70
2017-10-26T13:22:39.413Z,16.60
2017-10-26T13:25:07.725Z,16.70
2017-10-26T13:27:36.036Z,16.70
2017-10-26T13:30:04.359Z,16.70
2017-10-26T13:32:32.666Z,16.70
2017-10-26T13:35:01.007Z,16.70
2017-10-26T13:37:28.546Z,16.70
2017-10-26T13:39:56.898Z,16.60
2017-10-26T13:42:25.198Z,16.60
2017-10-26T13:44:53.506Z,16.60
2017-10-26T13:47:22.822Z,16.50
2017-10-26T13:49:53.157Z,16.40
2017-10-26T13:52:22.455Z,16.40
2017-10-26T13:54:50.761Z,16.40
2017-10-26T13:57:19.079Z,16.40
2017-10-26T13:59:47.386Z,16.40
2017-10-26T14:02:15.743Z,16.40
2017-10-26T14:04:44.075Z,16.40
2017-10-26T14:07:12.394Z,16.30
2017-10-26T14:09:41.780Z,16.30
2017-10-26T14:12:09.335Z,16.30
2017-10-26T14:14:37.634Z,16.30
2017-10-26T14:17:05.192Z,16.20
2017-10-26T14:19:34.587Z,16.20
2017-10-26T14:22:02.911Z,16.20
2017-10-26T14:24:31.215Z,16.10
2017-10-26T14:26:59.538Z,16.20
2017-10-26T14:29:27.889Z,16.20
2017-10-26T14:31:56.293Z,16.20
2017-10-26T14:34:24.602Z,16.20
2017-10-26T14:36:52.958Z,16.30
2017-10-26T14:39:22.314Z,16.20
2017-10-26T14:41:50.655Z,16.20
2017-10-26T14:44:18.239Z,16.20
2017-10-26T14:46:46.535Z,16.30
2017-10-26T14:49:14.866Z,16.30
2017-10-26T14:51:43.200Z,16.30
2017-10-26T14:54:11.867Z,16.30
2017-10-26T14:56:40.171Z,16.40
2017-10-26T14:59:08.494Z,16.50
2017-10-26T15:01:36.798Z,16.50
2017-10-26T15:04:05.127Z,16.50
2017-10-26T15:06:33.431Z,16.50
2017-10-26T15:09:01.767Z,16.50
2017-10-26T15:11:30.068Z,16.40
2017-10-26T15:13:58.398Z,16.40
2017-10-26T15:16:26.698Z,16.30
2017-10-26T15:18:55.038Z,16.30
2017-10-26T15:21:23.347Z,16.30
2017-10-26T15:23:51.646Z,16.30
2017-10-26T15:26:19.970Z,16.20
2017-10-26T15:28:48.280Z,16.20
2017-10-26T15:31:16.638Z,16.20
2017-10-26T15:33:45.041Z,16.10
2017-10-26T15:36:13.384Z,16.10
2017-10-26T15:38:41.690Z,16.00
2017-10-26T15:41:10.021Z,16.00
2017-10-26T15:43:38.359Z,15.90
2017-10-26T15:46:09.851Z,15.90
2017-10-26T15:48:38.161Z,15.90
2017-10-26T15:51:06.486Z,15.80
2017-10-26T15:53:34.027Z,15.80
2017-10-26T15:56:02.359Z,15.70
2017-10-26T15:58:30.669Z,15.70
2017-10-26T16:00:58.230Z,15.70
2017-10-26T16:03:26.561Z,15.60
2017-10-26T16:05:54.903Z,15.60
2017-10-26T16:08:23.207Z,15.50
2017-10-26T16:10:51.539Z,15.50
2017-10-26T16:13:19.833Z,15.50
2017-10-26T16:15:47.397Z,15.50
2017-10-26T16:18:14.933Z,15.50
2017-10-26T16:20:43.224Z,15.40
2017-10-26T16:23:10.780Z,15.40
2017-10-26T16:25:38.301Z,15.40
2017-10-26T16:28:05.865Z,15.30
2017-10-26T16:30:34.153Z,15.30
2017-10-26T16:33:02.621Z,15.30
2017-10-26T16:35:30.161Z,15.30
2017-10-26T16:37:57.714Z,15.30
2017-10-26T16:40:26.005Z,15.30
2017-10-26T16:42:53.544Z,15.20
2017-10-26T16:45:21.065Z,15.20
2017-10-26T16:47:48.616Z,15.20
2017-10-26T16:50:16.918Z,15.20
2017-10-26T16:52:45.227Z,15.10
2017-10-26T16:55:12.782Z,15.10
2017-10-26T16:57:40.333Z,15.10
2017-10-26T17:00:08.636Z,15.10
2017-10-26T17:02:36.177Z,15.10
2017-10-26T17:05:03.701Z,15.10
2017-10-26T17:07:31.373Z,15.10
2017-10-26T17:09:59.660Z,15.10
2017-10-26T17:12:27.217Z,15.10
2017-10-26T17:14:54.745Z,15.00
2017-10-26T17:17:22.276Z,15.00
2017-10-26T17:19:50.586Z,15.00
2017-10-26T17:22:18.122Z,14.90
2017-10-26T17:24:46.541Z,15.00
2017-10-26T17:27:15.057Z,15.00
2017-10-26T17:29:43.375Z,14.90
2017-10-26T17:32:10.907Z,15.00
2017-10-26T17:34:38.461Z,14.90
2017-10-26T17:37:05.988Z,14.90
2017-10-26T17:39:34.297Z,14.90
2017-10-26T17:42:02.785Z,14.90
2017-10-26T17:44:30.330Z,14.90
2017-10-26T17:46:57.849Z,14.90
2017-10-26T17:49:25.401Z,14.80
2017-10-26T17:51:53.684Z,14.90
2017-10-26T17:54:21.225Z,14.90
2017-10-26T17:56:48.747Z,14.90
2017-10-26T17:59:16.316Z,14.90
2017-10-26T18:01:44.609Z,14.90
2017-10-26T18:04:12.910Z,14.90
2017-10-26T18:06:40.457Z,14.80
2017-10-26T18:09:07.993Z,14.80
2017-10-26T18:11:36.312Z,14.80
2017-10-26T18:14:03.833Z,14.80
2017-10-26T18:16:31.385Z,14.70
2017-10-26T18:18:58.915Z,14.70
2017-10-26T18:21:27.230Z,14.70
2017-10-26T18:23:54.769Z,14.70
2017-10-26T18:26:22.325Z,14.70
2017-10-26T18:28:49.852Z,14.70
2017-10-26T18:31:18.170Z,14.70
2017-10-26T18:33:45.714Z,14.70
2017-10-26T18:36:13.279Z,14.70
2017-10-26T18:38:40.808Z,14.70
2017-10-26T18:41:09.197Z,14.70
2017-10-26T18:43:36.733Z,14.70
2017-10-26T18:46:04.280Z,14.70
2017-10-26T18:48:32.127Z,14.70
2017-10-26T18:51:00.509Z,14.70
2017-10-26T18:53:28.035Z,14.70
2017-10-26T18:55:55.557Z,14.70
2017-10-26T18:58:23.093Z,14.70
2017-10-26T19:00:51.381Z,14.70
2017-10-26T19:03:18.953Z,14.60
2017-10-26T19:05:47.261Z,14.70
2017-10-26T19:08:14.834Z,14.60
2017-10-26T19:10:43.116Z,14.70
2017-10-26T19:13:10.671Z,14.60
2017-10-26T19:15:38.199Z,14.70
2017-10-26T19:18:05.766Z,14.70
2017-10-26T19:20:34.085Z,14.70
2017-10-26T19:23:01.725Z,14.70
2017-10-26T19:25:29.290Z,14.70
2017-10-26T19:27:56.963Z,14.70
2017-10-26T19:30:25.361Z,14.70
2017-10-26T19:32:52.934Z,14.60
2017-10-26T19:35:20.468Z,14.70
2017-10-26T19:37:48.019Z,14.60
2017-10-26T19:40:16.308Z,14.60
2017-10-26T19:42:43.837Z,14.60
2017-10-26T19:45:11.477Z,14.60
2017-10-26T19:47:39.013Z,14.60
2017-10-26T19:50:07.750Z,14.60
2017-10-26T19:52:35.331Z,14.60
2017-10-26T19:55:02.992Z,14.60
2017-10-26T19:57:30.513Z,14.60
2017-10-26T19:59:58.870Z,14.60
2017-10-26T20:02:26.394Z,14.60
2017-10-26T20:04:53.958Z,14.60
2017-10-26T20:07:21.477Z,14.60
2017-10-26T20:09:49.997Z,14.60
2017-10-26T20:12:17.531Z,14.50
2017-10-26T20:14:45.907Z,14.60
2017-10-26T20:17:13.455Z,14.50
2017-10-26T20:19:41.748Z,14.50
2017-10-26T20:22:09.297Z,14.50
2017-10-26T20:24:36.855Z,14.60
2017-10-26T20:27:04.447Z,14.50
2017-10-26T20:29:33.675Z,14.50
2017-10-26T20:32:01.244Z,14.50
2017-10-26T20:34:28.782Z,14.40
2017-10-26T20:36:56.304Z,14.40
2017-10-26T20:39:23.857Z,14.30
2017-10-26T20:41:52.144Z,14.30
2017-10-26T20:44:19.692Z,14.30
2017-10-26T20:46:47.243Z,14.30
2017-10-26T20:49:20.387Z,14.20
2017-10-26T20:51:54.305Z,14.30
2017-10-26T20:54:27.399Z,14.20
2017-10-26T20:57:00.467Z,14.30
2017-10-26T20:59:34.328Z,14.30
2017-10-26T21:02:07.417Z,14.30
2017-10-26T21:04:40.509Z,14.30
2017-10-26T21:07:13.718Z,14.30
2017-10-26T21:09:42.089Z,14.30
2017-10-26T21:12:15.190Z,14.30
2017-10-26T21:14:42.761Z,14.30
2017-10-26T21:17:10.286Z,14.30
2017-10-26T21:19:38.597Z,14.30
2017-10-26T21:22:06.116Z,14.30
2017-10-26T21:24:34.413Z,14.30
2017-10-26T21:27:01.961Z,14.30
2017-10-26T21:29:30.261Z,14.20
2017-10-26T21:31:57.859Z,14.20
2017-10-26T21:34:26.173Z,14.20
2017-10-26T21:36:53.729Z,14.20
2017-10-26T21:39:21.272Z,14.20
2017-10-26T21:41:49.604Z,14.10
2017-10-26T21:44:17.134Z,14.10
2017-10-26T21:46:44.669Z,14.10
2017-10-26T21:49:12.224Z,14.10
2017-10-26T21:51:40.523Z,14.10
2017-10-26T21:54:08.073Z,14.00
2017-10-26T21:56:35.606Z,14.00
2017-10-26T21:59:03.916Z,14.10
2017-10-26T22:01:32.225Z,14.10
2017-10-26T22:03:59.809Z,14.00
2017-10-26T22:06:27.336Z,14.10
2017-10-26T22:08:54.880Z,14.10
2017-10-26T22:11:23.184Z,14.10
2017-10-26T22:13:50.715Z,14.00
2017-10-26T22:16:18.278Z,14.10
2017-10-26T22:18:45.806Z,14.10
2017-10-26T22:21:14.145Z,14.10
2017-10-26T22:23:41.674Z,14.00
2017-10-26T22:26:09.197Z,14.10
2017-10-26T22:28:36.742Z,14.10
2017-10-26T22:31:05.045Z,14.00
2017-10-26T22:33:32.585Z,14.00
2017-10-26T22:36:00.109Z,14.00
2017-10-26T22:38:27.681Z,14.00
2017-10-26T22:40:55.979Z,14.00
2017-10-26T22:43:23.502Z,14.00
2017-10-26T22:45:51.041Z,14.00
2017-10-26T22:48:18.579Z,14.10
2017-10-26T22:50:46.897Z,14.10
2017-10-26T22:53:14.429Z,14.10
2017-10-26T22:55:41.977Z,14.10
2017-10-26T22:58:10.281Z,14.10
2017-10-26T23:00:38.614Z,14.10
2017-10-26T23:03:06.133Z,14.10
2017-10-26T23:05:33.669Z,14.10
2017-10-26T23:08:01.221Z,14.10
2017-10-26T23:10:29.534Z,14.10
2017-10-26T23:12:57.088Z,14.10
2017-10-26T23:15:24.616Z,14.10
2017-10-26T23:17:52.924Z,14.10
2017-10-26T23:20:21.213Z,14.10
2017-10-26T23:22:48.784Z,14.10
2017-10-26T23:25:16.305Z,14.10
2017-10-26T23:27:43.828Z,14.10
2017-10-26T23:30:12.140Z,14.10
2017-10-26T23:32:39.657Z,14.10
2017-10-26T23:35:07.201Z,14.10
2017-10-26T23:37:34.725Z,14.10
2017-10-26T23:40:03.036Z,14.00
2017-10-26T23:42:30.564Z,14.00
2017-10-26T23:44:58.121Z,13.90
2017-10-26T23:47:26.404Z,13.90
2017-10-26T23:49:54.701Z,13.80
2017-10-26T23:52:22.244Z,13.80
2017-10-26T23:54:49.772Z,13.80
2017-10-26T23:57:17.321Z,13.80
2017-10-26T23:59:45.641Z,13.70
